createdAt,value
2022-12-22T00:01:56.563Z,92.93
2022-12-22T00:04:42.560Z,86.57
2022-12-22T00:07:28.428Z,80.60
2022-12-22T00:10:14.078Z,76.43
2022-12-22T00:12:59.764Z,78.93
2022-12-22T00:15:46.599Z,76.90
2022-12-22T00:18:35.829Z,79.00
2022-12-22T00:21:21.468Z,70.50
2022-12-22T00:24:07.071Z,76.32
2022-12-22T00:26:55.958Z,74.47
2022-12-22T00:29:41.627Z,76.38
2022-12-22T00:32:35.720Z,71.70
2022-12-22T00:35:22.788Z,72.65
2022-12-22T00:40:53.444Z,73.93
2022-12-22T00:43:38.928Z,74.13
2022-12-22T00:46:24.655Z,74.47
2022-12-22T00:49:09.856Z,74.10
2022-12-22T00:51:55.502Z,67.15
2022-12-22T00:54:42.395Z,70.43
2022-12-22T00:57:36.607Z,71.47
2022-12-22T01:00:23.907Z,82.60
2022-12-22T01:03:10.096Z,76.82
2022-12-22T01:05:55.809Z,81.32
2022-12-22T01:08:41.490Z,78.38
2022-12-22T01:11:27.046Z,82.80
2022-12-22T01:14:12.765Z,83.78
2022-12-22T01:16:58.519Z,79.13
2022-12-22T01:19:46.211Z,77.28
2022-12-22T01:22:37.157Z,78.03
2022-12-22T01:25:30.137Z,79.60
2022-12-22T01:28:15.580Z,77.78
2022-12-22T01:31:02.222Z,72.55
2022-12-22T01:33:47.862Z,74.43
2022-12-22T01:36:35.464Z,67.53
2022-12-22T01:39:22.546Z,70.15
2022-12-22T01:42:09.409Z,73.45
2022-12-22T01:44:57.968Z,73.47
2022-12-22T01:47:53.910Z,73.53
2022-12-22T01:50:52.775Z,73.40
2022-12-22T01:53:42.017Z,72.20
2022-12-22T01:56:29.632Z,74.45
2022-12-22T01:59:18.008Z,75.07
2022-12-22T02:02:04.187Z,70.20
2022-12-22T02:04:56.235Z,70.05
2022-12-22T02:08:12.902Z,75.18
2022-12-22T02:11:01.386Z,70.57
2022-12-22T02:14:09.742Z,72.40
2022-12-22T02:17:10.259Z,73.95
2022-12-22T02:20:23.026Z,71.55
2022-12-22T02:23:11.320Z,69.72
2022-12-22T02:26:06.598Z,70.15
2022-12-22T02:28:53.468Z,73.90
2022-12-22T02:31:39.153Z,71.78
2022-12-22T02:34:34.775Z,68.43
2022-12-22T02:37:35.530Z,73.00
2022-12-22T02:40:41.367Z,69.60
2022-12-22T02:43:49.692Z,67.40
2022-12-22T02:47:06.572Z,63.15
2022-12-22T02:50:12.166Z,68.30
2022-12-22T02:52:59.904Z,62.65
2022-12-22T02:55:47.100Z,67.22
2022-12-22T02:58:34.417Z,64.65
2022-12-22T03:04:08.371Z,69.93
2022-12-22T03:06:53.713Z,68.13
2022-12-22T03:09:39.005Z,62.15
2022-12-22T03:12:24.508Z,61.30
2022-12-22T03:15:10.294Z,59.72
2022-12-22T03:17:55.476Z,60.22
2022-12-22T03:20:41.220Z,57.47
2022-12-22T03:23:26.683Z,62.05
2022-12-22T03:25:56.516Z,54.28
2022-12-22T03:28:26.868Z,58.65
2022-12-22T03:31:00.669Z,62.08
2022-12-22T03:33:28.797Z,56.53
2022-12-22T03:35:55.757Z,51.10
2022-12-22T03:38:23.098Z,54.55
2022-12-22T03:40:50.257Z,55.97
2022-12-22T03:43:36.838Z,59.85
2022-12-22T03:46:22.980Z,56.15
2022-12-22T03:49:10.156Z,51.77
2022-12-22T03:51:40.976Z,48.25
2022-12-22T03:54:08.339Z,55.03
2022-12-22T03:56:35.518Z,56.03
2022-12-22T03:59:02.958Z,55.20
2022-12-22T04:01:30.624Z,52.42
2022-12-22T04:03:58.133Z,53.80
2022-12-22T04:06:25.273Z,49.10
2022-12-22T04:08:52.344Z,51.53
2022-12-22T04:11:37.795Z,49.78
2022-12-22T04:14:05.287Z,50.33
2022-12-22T04:16:32.718Z,58.58
2022-12-22T04:19:00.283Z,57.53
2022-12-22T04:21:27.698Z,56.00
2022-12-22T04:23:54.972Z,58.67
2022-12-22T04:26:24.128Z,57.75
2022-12-22T04:28:52.296Z,51.63
2022-12-22T04:31:19.791Z,63.28
2022-12-22T04:33:47.045Z,57.97
2022-12-22T04:36:14.217Z,58.95
2022-12-22T04:38:41.657Z,65.25
2022-12-22T04:41:09.082Z,61.10
2022-12-22T04:43:36.754Z,60.50
2022-12-22T04:46:04.780Z,57.60
2022-12-22T04:48:32.387Z,56.50
2022-12-22T04:51:01.009Z,57.35
2022-12-22T04:53:29.238Z,59.47
2022-12-22T04:55:59.637Z,54.47
2022-12-22T04:58:27.443Z,60.30
2022-12-22T05:00:54.496Z,52.53
2022-12-22T05:03:21.763Z,54.83
2022-12-22T05:05:48.798Z,53.95
2022-12-22T05:08:15.736Z,52.53
2022-12-22T05:10:42.788Z,49.17
2022-12-22T05:13:09.694Z,48.92
2022-12-22T05:15:37.345Z,48.10
2022-12-22T05:18:05.027Z,49.45
2022-12-22T05:20:32.175Z,50.67
2022-12-22T05:22:59.811Z,50.08
2022-12-22T05:25:32.909Z,50.03
2022-12-22T05:28:01.923Z,48.92
2022-12-22T05:30:28.846Z,47.47
2022-12-22T05:32:56.073Z,43.97
2022-12-22T05:35:23.297Z,51.55
2022-12-22T05:37:50.342Z,57.05
2022-12-22T05:40:17.796Z,54.00
2022-12-22T05:42:44.977Z,54.63
2022-12-22T05:45:15.759Z,53.47
2022-12-22T05:47:47.514Z,52.17
2022-12-22T05:50:16.454Z,59.90
2022-12-22T05:52:43.677Z,81.35
2022-12-22T05:55:12.336Z,91.90
2022-12-22T05:57:39.606Z,90.20
2022-12-22T06:00:08.679Z,91.18
2022-12-22T06:02:36.045Z,95.60
2022-12-22T06:05:03.307Z,93.18
2022-12-22T06:07:30.186Z,102.72
2022-12-22T06:09:57.160Z,105.57
2022-12-22T06:12:24.057Z,97.35
2022-12-22T06:14:51.237Z,92.45
2022-12-22T06:17:18.257Z,76.47
2022-12-22T06:19:45.504Z,74.53
2022-12-22T06:22:12.646Z,76.85
2022-12-22T06:24:39.796Z,66.63
2022-12-22T06:27:09.298Z,68.35
2022-12-22T06:29:36.337Z,65.28
2022-12-22T06:32:04.724Z,63.58
2022-12-22T06:34:31.899Z,66.68
2022-12-22T06:36:59.415Z,61.70
2022-12-22T06:39:26.467Z,59.22
2022-12-22T06:42:12.147Z,55.33
2022-12-22T06:44:39.159Z,53.25
2022-12-22T06:47:06.073Z,49.78
2022-12-22T06:49:32.932Z,56.28
2022-12-22T06:51:59.969Z,56.15
2022-12-22T06:54:27.096Z,59.25
2022-12-22T06:56:56.424Z,58.15
2022-12-22T06:59:23.391Z,56.45
2022-12-22T07:01:50.418Z,59.03
2022-12-22T07:04:21.124Z,58.10
2022-12-22T07:06:49.041Z,54.88
2022-12-22T07:09:16.062Z,56.92
2022-12-22T07:11:43.090Z,56.00
2022-12-22T07:14:11.171Z,54.78
2022-12-22T07:16:38.046Z,55.88
2022-12-22T07:19:05.022Z,51.83
2022-12-22T07:21:32.023Z,51.90
2022-12-22T07:23:58.908Z,51.80
2022-12-22T07:26:25.713Z,53.00
2022-12-22T07:28:52.574Z,54.63
2022-12-22T07:31:19.545Z,51.55
2022-12-22T07:33:47.050Z,59.60
2022-12-22T07:36:17.704Z,69.20
2022-12-22T07:38:46.914Z,67.97
2022-12-22T07:41:34.892Z,63.10
2022-12-22T07:44:02.469Z,85.57
2022-12-22T07:46:32.692Z,80.72
2022-12-22T07:49:18.329Z,82.50
2022-12-22T07:51:45.347Z,84.28
2022-12-22T07:54:15.121Z,89.80
2022-12-22T07:56:43.644Z,84.88
2022-12-22T07:59:10.819Z,80.82
2022-12-22T08:01:38.947Z,88.55
2022-12-22T08:04:06.099Z,56.95
2022-12-22T08:06:34.445Z,88.32
2022-12-22T08:09:01.823Z,84.80
2022-12-22T08:11:29.707Z,76.68
2022-12-22T08:14:01.209Z,66.63
2022-12-22T08:16:29.253Z,71.32
2022-12-22T08:18:56.889Z,69.80
2022-12-22T08:21:24.123Z,59.67
2022-12-22T08:23:51.301Z,43.22
2022-12-22T08:26:27.482Z,43.75
2022-12-22T08:28:59.920Z,41.92
2022-12-22T08:31:29.284Z,40.70
2022-12-22T08:33:58.924Z,37.17
2022-12-22T08:36:26.668Z,38.50
2022-12-22T08:38:53.933Z,41.42
2022-12-22T08:41:40.920Z,61.22
2022-12-22T08:44:08.576Z,69.55
2022-12-22T08:46:35.518Z,64.07
2022-12-22T08:49:06.831Z,62.70
2022-12-22T08:51:33.965Z,49.78
2022-12-22T08:54:05.960Z,45.42
2022-12-22T08:56:33.749Z,39.30
2022-12-22T08:59:05.716Z,39.40
2022-12-22T09:01:34.169Z,42.97
2022-12-22T09:04:01.454Z,39.53
2022-12-22T09:06:34.589Z,41.95
2022-12-22T09:09:07.250Z,41.25
2022-12-22T09:11:34.393Z,46.50
2022-12-22T09:14:02.891Z,50.08
2022-12-22T09:16:31.872Z,49.85
2022-12-22T09:18:59.377Z,56.72
2022-12-22T09:21:27.258Z,49.50
2022-12-22T09:23:55.289Z,47.80
2022-12-22T09:26:24.486Z,41.75
2022-12-22T09:28:51.943Z,44.17
2022-12-22T09:31:23.449Z,39.10
2022-12-22T09:33:52.096Z,37.38
2022-12-22T09:36:22.487Z,43.20
2022-12-22T09:38:49.706Z,43.28
2022-12-22T09:41:23.872Z,41.50
2022-12-22T09:43:50.769Z,40.90
2022-12-22T09:46:24.582Z,40.08
2022-12-22T09:48:54.075Z,37.15
2022-12-22T09:51:26.775Z,43.30
2022-12-22T09:54:03.534Z,37.38
2022-12-22T09:56:31.287Z,41.05
2022-12-22T09:58:58.612Z,34.05
2022-12-22T10:02:04.721Z,35.70
2022-12-22T10:04:46.862Z,41.38
2022-12-22T10:07:34.996Z,39.83
2022-12-22T10:10:25.207Z,43.40
2022-12-22T10:12:55.831Z,35.53
2022-12-22T10:15:23.413Z,33.85
2022-12-22T10:17:52.708Z,35.70
2022-12-22T10:20:19.555Z,32.65
2022-12-22T10:23:02.109Z,33.22
2022-12-22T10:28:51.155Z,33.28
2022-12-22T10:31:31.079Z,30.30
2022-12-22T10:34:15.663Z,28.30
2022-12-22T10:36:57.724Z,34.53
2022-12-22T10:39:27.313Z,30.95
2022-12-22T10:42:00.237Z,31.83
2022-12-22T10:44:31.745Z,31.13
2022-12-22T10:47:01.679Z,32.72
2022-12-22T10:52:29.147Z,28.98
2022-12-22T10:55:26.257Z,28.97
2022-12-22T10:58:15.735Z,29.33
2022-12-22T11:00:45.478Z,26.77
2022-12-22T11:03:19.141Z,27.52
2022-12-22T11:05:52.403Z,25.25
2022-12-22T11:08:20.760Z,27.52
2022-12-22T11:10:53.732Z,28.30
2022-12-22T11:13:52.072Z,27.52
2022-12-22T11:16:43.548Z,29.13
2022-12-22T11:19:19.503Z,30.92
2022-12-22T11:21:52.688Z,34.70
2022-12-22T11:24:22.696Z,41.97
2022-12-22T11:27:23.392Z,40.83
2022-12-22T11:30:03.034Z,37.05
2022-12-22T11:32:41.953Z,30.95
2022-12-22T11:35:14.689Z,36.47
2022-12-22T11:37:47.322Z,33.95
2022-12-22T11:40:49.468Z,35.95
2022-12-22T11:43:43.581Z,32.45
2022-12-22T11:46:41.674Z,32.22
2022-12-22T11:49:17.831Z,34.97
2022-12-22T11:52:11.399Z,62.42
2022-12-22T11:54:57.011Z,36.97
2022-12-22T11:57:48.613Z,36.17
2022-12-22T12:00:18.577Z,33.50
2022-12-22T12:03:23.503Z,31.20
2022-12-22T12:05:56.580Z,32.22
2022-12-22T12:08:26.217Z,29.83
2022-12-22T12:11:27.361Z,29.20
2022-12-22T12:14:24.551Z,27.33
2022-12-22T12:17:03.905Z,32.17
2022-12-22T12:19:42.877Z,27.88
2022-12-22T12:22:20.186Z,33.95
2022-12-22T12:25:11.786Z,30.83
2022-12-22T12:27:45.863Z,39.75
2022-12-22T12:33:24.526Z,32.35
2022-12-22T12:36:14.208Z,32.75
2022-12-22T12:39:08.853Z,33.65
2022-12-22T12:41:45.200Z,52.97
2022-12-22T12:44:18.536Z,51.45
2022-12-22T12:47:12.557Z,39.30
2022-12-22T12:49:39.643Z,29.38
2022-12-22T12:52:08.179Z,36.42
2022-12-22T12:54:42.580Z,37.28
2022-12-22T12:57:24.630Z,36.92
2022-12-22T12:59:54.620Z,36.55
2022-12-22T13:02:28.093Z,33.20
2022-12-22T13:05:13.302Z,33.55
2022-12-22T13:08:12.731Z,36.17
2022-12-22T13:10:55.003Z,40.45
2022-12-22T13:13:21.850Z,39.58
2022-12-22T13:16:09.960Z,38.63
2022-12-22T13:18:49.824Z,38.65
2022-12-22T13:24:25.158Z,44.60
2022-12-22T13:26:56.151Z,45.17
2022-12-22T13:29:23.158Z,38.58
2022-12-22T13:31:59.760Z,37.10
2022-12-22T13:34:57.250Z,34.53
2022-12-22T13:40:19.485Z,28.25
2022-12-22T13:42:52.276Z,30.08
2022-12-22T13:45:40.597Z,36.75
2022-12-22T13:48:18.134Z,30.58
2022-12-22T13:50:52.841Z,32.47
2022-12-22T13:56:24.013Z,43.95
2022-12-22T13:59:34.846Z,38.55
2022-12-22T14:02:16.677Z,37.08
2022-12-22T14:05:03.704Z,44.50
2022-12-22T14:07:31.470Z,43.20
2022-12-22T14:09:58.556Z,42.90
2022-12-22T14:12:30.704Z,34.67
2022-12-22T14:15:02.571Z,38.97
2022-12-22T14:17:31.668Z,44.50
2022-12-22T14:20:20.077Z,41.17
2022-12-22T14:22:58.385Z,46.38
2022-12-22T14:25:34.953Z,43.30
2022-12-22T14:30:39.338Z,46.60
2022-12-22T14:35:44.518Z,50.10
2022-12-22T14:38:24.168Z,51.78
2022-12-22T14:40:57.096Z,52.35
2022-12-22T14:43:31.682Z,50.35
2022-12-22T14:46:08.936Z,55.15
2022-12-22T14:48:45.836Z,69.68
2022-12-22T14:51:18.842Z,118.93
2022-12-22T14:53:53.436Z,163.88
2022-12-22T14:56:22.644Z,176.90
2022-12-22T14:58:50.453Z,166.15
2022-12-22T15:01:20.698Z,143.27
2022-12-22T15:04:08.325Z,152.27
2022-12-22T15:06:40.319Z,98.72
2022-12-22T15:09:09.135Z,84.97
2022-12-22T15:11:39.312Z,117.88
2022-12-22T15:14:09.908Z,110.90
2022-12-22T15:16:39.786Z,93.32
2022-12-22T15:19:06.956Z,71.68
2022-12-22T15:21:35.623Z,62.25
2022-12-22T15:24:03.709Z,77.88
2022-12-22T15:26:37.511Z,152.50
2022-12-22T15:29:05.107Z,131.50
2022-12-22T15:31:32.696Z,157.43
2022-12-22T15:34:03.217Z,133.20
2022-12-22T15:36:30.680Z,118.10
2022-12-22T15:38:58.169Z,121.53
2022-12-22T15:41:25.283Z,127.70
2022-12-22T15:43:59.874Z,144.38
2022-12-22T15:46:27.174Z,147.23
2022-12-22T15:48:54.431Z,153.93
2022-12-22T15:51:28.326Z,170.48
2022-12-22T15:53:57.486Z,149.00
2022-12-22T15:56:26.082Z,165.85
2022-12-22T15:58:53.976Z,146.82
2022-12-22T16:01:21.051Z,160.70
2022-12-22T16:03:48.771Z,157.35
2022-12-22T16:06:17.991Z,158.10
2022-12-22T16:08:50.041Z,159.65
2022-12-22T16:11:17.974Z,152.30
2022-12-22T16:13:45.640Z,155.05
2022-12-22T16:16:12.735Z,138.13
2022-12-22T16:18:40.085Z,129.95
2022-12-22T16:21:30.448Z,147.43
2022-12-22T16:23:58.961Z,140.65
2022-12-22T16:26:26.547Z,157.90
2022-12-22T16:28:54.413Z,146.35
2022-12-22T16:31:23.225Z,130.55
2022-12-22T16:33:51.003Z,125.05
2022-12-22T16:36:18.531Z,123.22
2022-12-22T16:38:46.135Z,122.03
2022-12-22T16:41:24.241Z,112.07
2022-12-22T16:43:53.803Z,109.88
2022-12-22T16:46:23.209Z,107.88
2022-12-22T16:48:55.501Z,106.25
2022-12-22T16:51:26.504Z,105.10
2022-12-22T16:53:54.359Z,94.93
2022-12-22T16:56:29.054Z,90.43
2022-12-22T16:58:56.660Z,88.03
2022-12-22T17:01:31.955Z,92.35
2022-12-22T17:04:03.874Z,90.57
2022-12-22T17:06:30.840Z,98.60
2022-12-22T17:08:57.987Z,92.93
2022-12-22T17:11:29.486Z,95.85
2022-12-22T17:14:19.808Z,93.68
2022-12-22T17:16:46.941Z,86.38
2022-12-22T17:19:14.079Z,89.88
2022-12-22T17:21:41.441Z,98.13
2022-12-22T17:24:13.009Z,95.45
2022-12-22T17:26:40.272Z,89.90
2022-12-22T17:29:10.246Z,84.30
2022-12-22T17:31:37.400Z,88.50
2022-12-22T17:34:17.287Z,94.93
2022-12-22T17:36:46.631Z,102.43
2022-12-22T17:39:17.233Z,120.15
2022-12-22T17:41:45.302Z,115.90
2022-12-22T17:44:22.567Z,117.05
2022-12-22T17:46:49.995Z,117.60
2022-12-22T17:49:20.179Z,112.97
2022-12-22T17:51:48.351Z,110.90
2022-12-22T17:54:22.798Z,112.85
2022-12-22T17:56:50.145Z,122.28
2022-12-22T17:59:17.344Z,135.40
2022-12-22T18:01:44.948Z,137.80
2022-12-22T18:04:12.019Z,135.13
2022-12-22T18:06:41.732Z,144.38
2022-12-22T18:09:19.090Z,151.63
2022-12-22T18:11:46.415Z,157.25
2022-12-22T18:14:15.595Z,170.68
2022-12-22T18:16:44.767Z,171.48
2022-12-22T18:19:12.691Z,177.00
2022-12-22T18:21:40.150Z,179.20
2022-12-22T18:24:15.726Z,177.57
2022-12-22T18:26:43.562Z,179.75
2022-12-22T18:29:15.370Z,183.77
2022-12-22T18:31:44.555Z,180.73
2022-12-22T18:34:12.882Z,178.43
2022-12-22T18:36:44.000Z,185.25
2022-12-22T18:39:19.247Z,170.70
2022-12-22T18:41:48.603Z,169.50
2022-12-22T18:44:20.079Z,155.48
2022-12-22T18:46:47.930Z,137.07
2022-12-22T18:49:15.973Z,137.75
2022-12-22T18:51:45.209Z,120.80
2022-12-22T18:54:26.421Z,128.70
2022-12-22T18:59:29.520Z,121.72
2022-12-22T19:02:04.279Z,118.18
2022-12-22T19:07:20.523Z,115.80
2022-12-22T19:09:48.028Z,117.70
2022-12-22T19:12:23.519Z,126.60
2022-12-22T19:20:15.955Z,113.75
2022-12-22T19:22:47.454Z,100.05
2022-12-22T19:38:40.179Z,96.30
2022-12-22T19:41:13.998Z,106.93
2022-12-22T19:43:40.946Z,105.70
2022-12-22T19:46:08.087Z,106.22
2022-12-22T19:48:35.168Z,100.68
2022-12-22T19:51:02.163Z,104.38
2022-12-22T19:53:29.378Z,148.88
2022-12-22T19:55:57.575Z,178.88
2022-12-22T19:58:27.231Z,174.43
2022-12-22T20:00:54.975Z,172.98
2022-12-22T20:03:24.651Z,162.48
2022-12-22T20:05:52.731Z,155.10
2022-12-22T20:08:20.269Z,137.77
2022-12-22T20:10:49.530Z,122.50
2022-12-22T20:13:24.350Z,119.90
2022-12-22T20:15:54.828Z,106.00
2022-12-22T20:18:24.337Z,111.45
2022-12-22T20:21:03.192Z,109.32
2022-12-22T20:23:34.432Z,105.35
2022-12-22T20:26:05.307Z,101.15
2022-12-22T20:28:36.083Z,103.40
2022-12-22T20:31:04.595Z,107.05
2022-12-22T20:33:32.411Z,111.43
2022-12-22T20:36:02.246Z,108.30
2022-12-22T20:38:36.465Z,107.47
2022-12-22T20:41:06.144Z,102.53
2022-12-22T20:43:34.303Z,93.90
2022-12-22T20:46:11.917Z,104.10
2022-12-22T20:48:43.978Z,97.55
2022-12-22T20:51:14.925Z,87.60
2022-12-22T20:53:43.220Z,87.30
2022-12-22T20:56:41.428Z,77.95
2022-12-22T20:59:22.896Z,81.88
2022-12-22T21:01:52.313Z,82.95
2022-12-22T21:04:19.420Z,85.28
2022-12-22T21:06:51.267Z,78.30
2022-12-22T21:09:18.687Z,75.10
2022-12-22T21:14:16.237Z,82.22
2022-12-22T21:19:32.879Z,80.93
2022-12-22T21:21:59.801Z,82.15
2022-12-22T21:24:26.936Z,82.20
2022-12-22T21:26:56.270Z,91.43
2022-12-22T21:29:27.524Z,92.70
2022-12-22T21:31:54.680Z,86.85
2022-12-22T21:34:22.115Z,90.40
2022-12-22T21:36:54.602Z,87.32
2022-12-22T21:39:30.301Z,90.50
2022-12-22T21:42:00.715Z,87.93
2022-12-22T21:44:33.973Z,89.85
2022-12-22T21:47:04.627Z,90.43
2022-12-22T21:49:33.665Z,95.22
2022-12-22T21:52:01.111Z,94.47
2022-12-22T21:54:28.252Z,99.60
2022-12-22T21:56:55.703Z,110.53
2022-12-22T21:59:23.629Z,102.80
2022-12-22T22:01:53.225Z,93.60
2022-12-22T22:04:21.148Z,95.28
2022-12-22T22:06:48.547Z,86.45
2022-12-22T22:09:17.881Z,90.55
2022-12-22T22:12:03.270Z,87.85
2022-12-22T22:14:30.304Z,91.70
2022-12-22T22:16:57.336Z,97.55
2022-12-22T22:19:24.404Z,89.30
2022-12-22T22:21:51.427Z,87.70
2022-12-22T22:24:18.436Z,86.28
2022-12-22T22:26:46.682Z,92.75
2022-12-22T22:29:13.989Z,89.53
2022-12-22T22:33:33.125Z,92.90
2022-12-22T22:36:06.201Z,99.65
2022-12-22T22:38:33.224Z,91.63
2022-12-22T22:41:00.452Z,100.82
2022-12-22T22:43:27.528Z,96.03
2022-12-22T22:45:54.885Z,99.10
2022-12-22T22:48:23.548Z,99.05
2022-12-22T22:50:51.115Z,91.35
2022-12-22T22:53:18.353Z,92.47
2022-12-22T22:55:45.350Z,94.22
2022-12-22T22:58:12.428Z,93.00
2022-12-22T23:00:40.203Z,104.18
2022-12-22T23:03:07.756Z,118.28
2022-12-22T23:05:34.977Z,130.93
2022-12-22T23:08:02.484Z,118.18
2022-12-22T23:10:29.294Z,121.20
2022-12-22T23:12:56.342Z,125.38
2022-12-22T23:15:23.375Z,156.05
2022-12-22T23:17:52.127Z,166.80
2022-12-22T23:20:19.198Z,172.13
2022-12-22T23:22:46.864Z,165.50
2022-12-22T23:25:14.374Z,167.27
2022-12-22T23:27:41.556Z,160.73
2022-12-22T23:30:09.329Z,156.60
2022-12-22T23:32:36.378Z,162.88
2022-12-22T23:35:03.483Z,152.38
2022-12-22T23:37:30.544Z,158.73
2022-12-22T23:40:10.913Z,180.30
2022-12-22T23:47:38.567Z,184.95
2022-12-22T23:50:06.265Z,173.82
2022-12-22T23:52:33.506Z,166.20
2022-12-22T23:55:00.767Z,173.35
2022-12-22T23:57:27.705Z,176.88
2022-12-22T23:59:54.771Z,167.43
